sensor_id;sensor_type;location;lat;lon;timestamp;P1;durP1;ratioP1;P2;durP2;ratioP2
39864;SDS011;25538;48.392;9.976;2022-08-20T00:00:08;74.03;;;66.03;;
39864;SDS011;25538;48.392;9.976;2022-08-20T00:02:39;71.85;;;64.32;;
39864;SDS011;25538;48.392;9.976;2022-08-20T00:05:07;67.38;;;60.03;;
39864;SDS011;25538;48.392;9.976;2022-08-20T00:07:33;67.95;;;60.88;;
39864;SDS011;25538;48.392;9.976;2022-08-20T00:09:59;64.10;;;57.60;;
39864;SDS011;25538;48.392;9.976;2022-08-20T00:12:25;69.90;;;63.00;;
39864;SDS011;25538;48.392;9.976;2022-08-20T00:14:52;65.90;;;59.30;;
39864;SDS011;25538;48.392;9.976;2022-08-20T00:17:18;63.40;;;56.90;;
39864;SDS011;25538;48.392;9.976;2022-08-20T00:19:43;61.10;;;55.07;;
39864;SDS011;25538;48.392;9.976;2022-08-20T00:22:09;66.17;;;58.43;;
39864;SDS011;25538;48.392;9.976;2022-08-20T00:24:35;60.27;;;53.70;;
39864;SDS011;25538;48.392;9.976;2022-08-20T00:27:01;61.10;;;55.10;;
39864;SDS011;25538;48.392;9.976;2022-08-20T00:29:28;59.17;;;53.33;;
39864;SDS011;25538;48.392;9.976;2022-08-20T00:31:54;54.45;;;48.95;;
39864;SDS011;25538;48.392;9.976;2022-08-20T00:34:20;55.57;;;50.27;;
39864;SDS011;25538;48.392;9.976;2022-08-20T00:36:45;56.57;;;51.17;;
39864;SDS011;25538;48.392;9.976;2022-08-20T00:39:11;58.53;;;52.70;;
39864;SDS011;25538;48.392;9.976;2022-08-20T00:41:37;59.23;;;53.03;;
39864;SDS011;25538;48.392;9.976;2022-08-20T00:44:06;53.20;;;47.90;;
39864;SDS011;25538;48.392;9.976;2022-08-20T00:46:32;52.38;;;47.15;;
39864;SDS011;25538;48.392;9.976;2022-08-20T00:48:59;49.83;;;45.13;;
39864;SDS011;25538;48.392;9.976;2022-08-20T00:51:32;48.92;;;44.42;;
39864;SDS011;25538;48.392;9.976;2022-08-20T00:54:19;50.03;;;45.53;;
39864;SDS011;25538;48.392;9.976;2022-08-20T00:56:51;52.03;;;46.63;;
39864;SDS011;25538;48.392;9.976;2022-08-20T00:59:27;45.70;;;41.40;;
39864;SDS011;25538;48.392;9.976;2022-08-20T01:01:55;46.70;;;42.50;;
39864;SDS011;25538;48.392;9.976;2022-08-20T01:04:24;46.90;;;42.50;;
39864;SDS011;25538;48.392;9.976;2022-08-20T01:06:51;43.10;;;39.15;;
39864;SDS011;25538;48.392;9.976;2022-08-20T01:09:17;43.00;;;39.00;;
39864;SDS011;25538;48.392;9.976;2022-08-20T01:11:44;41.10;;;37.10;;
39864;SDS011;25538;48.392;9.976;2022-08-20T01:14:11;41.87;;;37.90;;
39864;SDS011;25538;48.392;9.976;2022-08-20T01:17:00;42.45;;;38.45;;
39864;SDS011;25538;48.392;9.976;2022-08-20T01:19:30;40.90;;;37.20;;
39864;SDS011;25538;48.392;9.976;2022-08-20T01:22:03;41.08;;;36.80;;
39864;SDS011;25538;48.392;9.976;2022-08-20T01:24:50;41.80;;;38.10;;
39864;SDS011;25538;48.392;9.976;2022-08-20T01:27:23;38.90;;;35.40;;
39864;SDS011;25538;48.392;9.976;2022-08-20T01:29:49;36.67;;;33.50;;
39864;SDS011;25538;48.392;9.976;2022-08-20T01:32:16;34.07;;;31.27;;
39864;SDS011;25538;48.392;9.976;2022-08-20T01:34:42;34.50;;;31.30;;
39864;SDS011;25538;48.392;9.976;2022-08-20T01:37:08;35.47;;;32.47;;
39864;SDS011;25538;48.392;9.976;2022-08-20T01:39:35;35.73;;;32.73;;
39864;SDS011;25538;48.392;9.976;2022-08-20T01:42:10;35.67;;;32.50;;
39864;SDS011;25538;48.392;9.976;2022-08-20T01:44:55;35.17;;;31.83;;
39864;SDS011;25538;48.392;9.976;2022-08-20T01:47:23;33.30;;;30.27;;
39864;SDS011;25538;48.392;9.976;2022-08-20T01:49:51;34.50;;;31.30;;
39864;SDS011;25538;48.392;9.976;2022-08-20T01:52:25;31.87;;;29.03;;
39864;SDS011;25538;48.392;9.976;2022-08-20T01:54:56;31.20;;;28.60;;
39864;SDS011;25538;48.392;9.976;2022-08-20T01:57:22;26.63;;;24.20;;
39864;SDS011;25538;48.392;9.976;2022-08-20T01:59:53;24.87;;;22.77;;
39864;SDS011;25538;48.392;9.976;2022-08-20T02:02:20;25.27;;;23.08;;
39864;SDS011;25538;48.392;9.976;2022-08-20T02:04:46;27.10;;;24.67;;
39864;SDS011;25538;48.392;9.976;2022-08-20T02:07:14;22.70;;;20.90;;
39864;SDS011;25538;48.392;9.976;2022-08-20T02:09:42;20.03;;;18.20;;
39864;SDS011;25538;48.392;9.976;2022-08-20T02:12:09;22.45;;;20.55;;
39864;SDS011;25538;48.392;9.976;2022-08-20T02:14:38;15.60;;;14.40;;
39864;SDS011;25538;48.392;9.976;2022-08-20T02:17:11;13.10;;;12.10;;
39864;SDS011;25538;48.392;9.976;2022-08-20T02:19:40;10.27;;;9.57;;
39864;SDS011;25538;48.392;9.976;2022-08-20T02:22:26;10.63;;;9.63;;
39864;SDS011;25538;48.392;9.976;2022-08-20T02:25:13;10.80;;;9.88;;
39864;SDS011;25538;48.392;9.976;2022-08-20T02:27:41;9.73;;;8.93;;
39864;SDS011;25538;48.392;9.976;2022-08-20T02:30:20;9.10;;;8.40;;
39864;SDS011;25538;48.392;9.976;2022-08-20T02:33:00;10.00;;;9.30;;
39864;SDS011;25538;48.392;9.976;2022-08-20T02:35:27;8.10;;;7.60;;
39864;SDS011;25538;48.392;9.976;2022-08-20T02:37:56;8.67;;;7.70;;
39864;SDS011;25538;48.392;9.976;2022-08-20T02:40:23;9.00;;;8.30;;
39864;SDS011;25538;48.392;9.976;2022-08-20T02:42:51;10.10;;;8.60;;
39864;SDS011;25538;48.392;9.976;2022-08-20T02:45:18;8.53;;;7.80;;
39864;SDS011;25538;48.392;9.976;2022-08-20T02:47:46;9.30;;;8.70;;
39864;SDS011;25538;48.392;9.976;2022-08-20T02:50:15;8.35;;;7.75;;
39864;SDS011;25538;48.392;9.976;2022-08-20T02:52:42;8.88;;;8.23;;
39864;SDS011;25538;48.392;9.976;2022-08-20T02:55:09;8.50;;;7.88;;
39864;SDS011;25538;48.392;9.976;2022-08-20T02:57:36;8.90;;;8.10;;
39864;SDS011;25538;48.392;9.976;2022-08-20T03:00:07;9.55;;;8.93;;
39864;SDS011;25538;48.392;9.976;2022-08-20T03:02:36;10.52;;;9.43;;
39864;SDS011;25538;48.392;9.976;2022-08-20T03:05:02;10.03;;;8.90;;
39864;SDS011;25538;48.392;9.976;2022-08-20T03:07:29;9.85;;;9.15;;
39864;SDS011;25538;48.392;9.976;2022-08-20T03:09:55;9.20;;;8.40;;
39864;SDS011;25538;48.392;9.976;2022-08-20T03:12:20;10.27;;;9.37;;
39864;SDS011;25538;48.392;9.976;2022-08-20T03:14:46;11.17;;;10.30;;
39864;SDS011;25538;48.392;9.976;2022-08-20T03:17:12;11.03;;;10.13;;
39864;SDS011;25538;48.392;9.976;2022-08-20T03:19:38;13.03;;;12.00;;
39864;SDS011;25538;48.392;9.976;2022-08-20T03:22:04;12.23;;;11.23;;
39864;SDS011;25538;48.392;9.976;2022-08-20T03:24:30;11.30;;;10.47;;
39864;SDS011;25538;48.392;9.976;2022-08-20T03:26:56;13.77;;;12.47;;
39864;SDS011;25538;48.392;9.976;2022-08-20T03:29:22;14.47;;;13.17;;
39864;SDS011;25538;48.392;9.976;2022-08-20T03:31:48;11.77;;;10.87;;
39864;SDS011;25538;48.392;9.976;2022-08-20T03:34:13;12.10;;;11.20;;
39864;SDS011;25538;48.392;9.976;2022-08-20T03:36:39;12.33;;;11.33;;
39864;SDS011;25538;48.392;9.976;2022-08-20T03:39:06;10.57;;;9.73;;
39864;SDS011;25538;48.392;9.976;2022-08-20T03:41:36;11.82;;;10.90;;
39864;SDS011;25538;48.392;9.976;2022-08-20T03:44:03;9.93;;;9.03;;
39864;SDS011;25538;48.392;9.976;2022-08-20T03:46:31;10.40;;;9.60;;
39864;SDS011;25538;48.392;9.976;2022-08-20T03:48:58;10.55;;;9.70;;
39864;SDS011;25538;48.392;9.976;2022-08-20T03:51:23;11.30;;;10.30;;
39864;SDS011;25538;48.392;9.976;2022-08-20T03:53:49;9.57;;;8.90;;
39864;SDS011;25538;48.392;9.976;2022-08-20T03:56:15;8.98;;;8.27;;
39864;SDS011;25538;48.392;9.976;2022-08-20T03:58:41;8.70;;;8.00;;
39864;SDS011;25538;48.392;9.976;2022-08-20T04:01:08;9.20;;;8.50;;
39864;SDS011;25538;48.392;9.976;2022-08-20T04:03:34;9.40;;;8.50;;
39864;SDS011;25538;48.392;9.976;2022-08-20T04:06:00;9.60;;;8.90;;
39864;SDS011;25538;48.392;9.976;2022-08-20T04:08:27;9.73;;;9.02;;
39864;SDS011;25538;48.392;9.976;2022-08-20T04:10:54;11.82;;;10.73;;
39864;SDS011;25538;48.392;9.976;2022-08-20T04:13:24;11.40;;;10.50;;
39864;SDS011;25538;48.392;9.976;2022-08-20T04:15:51;12.43;;;11.32;;
39864;SDS011;25538;48.392;9.976;2022-08-20T04:18:20;12.20;;;11.30;;
39864;SDS011;25538;48.392;9.976;2022-08-20T04:20:49;12.50;;;11.40;;
39864;SDS011;25538;48.392;9.976;2022-08-20T04:23:15;12.75;;;11.63;;
39864;SDS011;25538;48.392;9.976;2022-08-20T04:25:42;13.87;;;12.70;;
39864;SDS011;25538;48.392;9.976;2022-08-20T04:28:14;14.10;;;12.80;;
39864;SDS011;25538;48.392;9.976;2022-08-20T04:30:49;11.98;;;10.98;;
39864;SDS011;25538;48.392;9.976;2022-08-20T04:33:17;13.27;;;12.25;;
39864;SDS011;25538;48.392;9.976;2022-08-20T04:35:46;13.30;;;12.00;;
39864;SDS011;25538;48.392;9.976;2022-08-20T04:38:13;12.35;;;11.45;;
39864;SDS011;25538;48.392;9.976;2022-08-20T04:40:40;11.65;;;10.85;;
39864;SDS011;25538;48.392;9.976;2022-08-20T04:43:20;13.00;;;12.00;;
39864;SDS011;25538;48.392;9.976;2022-08-20T04:45:48;12.68;;;11.77;;
39864;SDS011;25538;48.392;9.976;2022-08-20T04:48:16;12.02;;;11.13;;
39864;SDS011;25538;48.392;9.976;2022-08-20T04:50:43;13.60;;;12.50;;
39864;SDS011;25538;48.392;9.976;2022-08-20T04:53:12;12.18;;;11.27;;
39864;SDS011;25538;48.392;9.976;2022-08-20T04:55:42;12.73;;;11.70;;
39864;SDS011;25538;48.392;9.976;2022-08-20T04:58:11;13.70;;;12.60;;
39864;SDS011;25538;48.392;9.976;2022-08-20T05:00:46;13.68;;;12.57;;
39864;SDS011;25538;48.392;9.976;2022-08-20T05:03:14;13.68;;;12.57;;
39864;SDS011;25538;48.392;9.976;2022-08-20T05:05:41;11.98;;;10.98;;
39864;SDS011;25538;48.392;9.976;2022-08-20T05:08:09;10.55;;;9.68;;
39864;SDS011;25538;48.392;9.976;2022-08-20T05:10:37;8.88;;;8.27;;
39864;SDS011;25538;48.392;9.976;2022-08-20T05:13:04;9.38;;;8.68;;
39864;SDS011;25538;48.392;9.976;2022-08-20T05:15:31;10.07;;;9.48;;
39864;SDS011;25538;48.392;9.976;2022-08-20T05:17:58;9.95;;;9.15;;
39864;SDS011;25538;48.392;9.976;2022-08-20T05:20:27;10.40;;;9.70;;
39864;SDS011;25538;48.392;9.976;2022-08-20T05:22:56;12.32;;;11.43;;
39864;SDS011;25538;48.392;9.976;2022-08-20T05:25:23;10.02;;;9.32;;
39864;SDS011;25538;48.392;9.976;2022-08-20T05:27:57;9.73;;;9.02;;
39864;SDS011;25538;48.392;9.976;2022-08-20T05:30:25;10.05;;;9.25;;
39864;SDS011;25538;48.392;9.976;2022-08-20T05:33:00;8.73;;;8.23;;
39864;SDS011;25538;48.392;9.976;2022-08-20T05:35:28;9.60;;;8.90;;
39864;SDS011;25538;48.392;9.976;2022-08-20T05:37:54;8.98;;;8.40;;
39864;SDS011;25538;48.392;9.976;2022-08-20T05:40:21;8.73;;;8.07;;
39864;SDS011;25538;48.392;9.976;2022-08-20T05:42:49;8.70;;;8.10;;
39864;SDS011;25538;48.392;9.976;2022-08-20T05:45:15;9.38;;;8.70;;
39864;SDS011;25538;48.392;9.976;2022-08-20T05:47:41;9.70;;;8.80;;
39864;SDS011;25538;48.392;9.976;2022-08-20T05:50:10;8.13;;;7.63;;
39864;SDS011;25538;48.392;9.976;2022-08-20T05:52:40;7.83;;;7.33;;
39864;SDS011;25538;48.392;9.976;2022-08-20T05:55:08;9.60;;;8.90;;
39864;SDS011;25538;48.392;9.976;2022-08-20T05:57:37;10.40;;;9.57;;
39864;SDS011;25538;48.392;9.976;2022-08-20T06:00:05;9.57;;;8.83;;
39864;SDS011;25538;48.392;9.976;2022-08-20T06:02:34;8.83;;;8.20;;
39864;SDS011;25538;48.392;9.976;2022-08-20T06:05:18;8.37;;;7.77;;
39864;SDS011;25538;48.392;9.976;2022-08-20T06:07:45;8.80;;;8.20;;
39864;SDS011;25538;48.392;9.976;2022-08-20T06:10:11;8.40;;;7.80;;
39864;SDS011;25538;48.392;9.976;2022-08-20T06:12:38;7.45;;;6.95;;
39864;SDS011;25538;48.392;9.976;2022-08-20T06:15:04;7.23;;;6.83;;
39864;SDS011;25538;48.392;9.976;2022-08-20T06:17:31;7.90;;;7.10;;
39864;SDS011;25538;48.392;9.976;2022-08-20T06:20:01;8.30;;;7.80;;
39864;SDS011;25538;48.392;9.976;2022-08-20T06:22:30;6.50;;;6.10;;
39864;SDS011;25538;48.392;9.976;2022-08-20T06:24:56;7.63;;;7.13;;
39864;SDS011;25538;48.392;9.976;2022-08-20T06:27:23;6.13;;;5.67;;
39864;SDS011;25538;48.392;9.976;2022-08-20T06:29:49;6.83;;;6.43;;
39864;SDS011;25538;48.392;9.976;2022-08-20T06:32:15;7.43;;;7.03;;
39864;SDS011;25538;48.392;9.976;2022-08-20T06:34:41;7.80;;;7.30;;
39864;SDS011;25538;48.392;9.976;2022-08-20T06:37:14;7.60;;;7.10;;
39864;SDS011;25538;48.392;9.976;2022-08-20T06:39:42;8.10;;;7.30;;
39864;SDS011;25538;48.392;9.976;2022-08-20T06:42:08;9.20;;;8.50;;
39864;SDS011;25538;48.392;9.976;2022-08-20T06:44:34;8.37;;;7.80;;
39864;SDS011;25538;48.392;9.976;2022-08-20T06:47:04;7.57;;;7.17;;
39864;SDS011;25538;48.392;9.976;2022-08-20T06:49:33;8.80;;;8.20;;
39864;SDS011;25538;48.392;9.976;2022-08-20T06:52:01;8.90;;;8.20;;
39864;SDS011;25538;48.392;9.976;2022-08-20T06:54:30;8.13;;;7.53;;
39864;SDS011;25538;48.392;9.976;2022-08-20T06:56:58;7.83;;;7.33;;
39864;SDS011;25538;48.392;9.976;2022-08-20T06:59:26;8.00;;;7.50;;
39864;SDS011;25538;48.392;9.976;2022-08-20T07:01:51;8.93;;;8.43;;
39864;SDS011;25538;48.392;9.976;2022-08-20T07:04:21;9.30;;;8.50;;
39864;SDS011;25538;48.392;9.976;2022-08-20T07:06:48;9.23;;;8.63;;
39864;SDS011;25538;48.392;9.976;2022-08-20T07:09:17;8.30;;;7.60;;
39864;SDS011;25538;48.392;9.976;2022-08-20T07:11:44;8.67;;;7.97;;
39864;SDS011;25538;48.392;9.976;2022-08-20T07:14:10;7.73;;;7.23;;
39864;SDS011;25538;48.392;9.976;2022-08-20T07:16:36;8.07;;;7.20;;
39864;SDS011;25538;48.392;9.976;2022-08-20T07:19:02;6.87;;;6.47;;
39864;SDS011;25538;48.392;9.976;2022-08-20T07:21:29;6.33;;;5.93;;
39864;SDS011;25538;48.392;9.976;2022-08-20T07:23:55;5.83;;;5.43;;
39864;SDS011;25538;48.392;9.976;2022-08-20T07:26:21;6.50;;;6.07;;
39864;SDS011;25538;48.392;9.976;2022-08-20T07:28:47;6.67;;;6.17;;
39864;SDS011;25538;48.392;9.976;2022-08-20T07:31:13;6.27;;;5.87;;
39864;SDS011;25538;48.392;9.976;2022-08-20T07:33:58;6.57;;;6.17;;
39864;SDS011;25538;48.392;9.976;2022-08-20T07:36:24;6.23;;;5.73;;
39864;SDS011;25538;48.392;9.976;2022-08-20T07:38:51;5.60;;;5.10;;
39864;SDS011;25538;48.392;9.976;2022-08-20T07:41:17;6.43;;;6.03;;
39864;SDS011;25538;48.392;9.976;2022-08-20T07:43:44;6.33;;;5.93;;
39864;SDS011;25538;48.392;9.976;2022-08-20T07:46:12;6.87;;;6.47;;
39864;SDS011;25538;48.392;9.976;2022-08-20T07:48:40;7.30;;;6.80;;
39864;SDS011;25538;48.392;9.976;2022-08-20T07:51:10;8.30;;;7.70;;
39864;SDS011;25538;48.392;9.976;2022-08-20T07:53:39;9.40;;;8.60;;
39864;SDS011;25538;48.392;9.976;2022-08-20T07:56:06;10.30;;;9.57;;
39864;SDS011;25538;48.392;9.976;2022-08-20T07:58:34;8.63;;;8.10;;
39864;SDS011;25538;48.392;9.976;2022-08-20T08:01:03;9.47;;;8.80;;
39864;SDS011;25538;48.392;9.976;2022-08-20T08:03:32;8.13;;;7.63;;
39864;SDS011;25538;48.392;9.976;2022-08-20T08:05:58;8.83;;;8.13;;
39864;SDS011;25538;48.392;9.976;2022-08-20T08:08:25;7.87;;;7.37;;
39864;SDS011;25538;48.392;9.976;2022-08-20T08:10:56;8.60;;;7.90;;
39864;SDS011;25538;48.392;9.976;2022-08-20T08:13:25;8.53;;;8.03;;
39864;SDS011;25538;48.392;9.976;2022-08-20T08:15:55;9.27;;;8.47;;
39864;SDS011;25538;48.392;9.976;2022-08-20T08:18:23;9.67;;;8.87;;
39864;SDS011;25538;48.392;9.976;2022-08-20T08:20:51;8.57;;;8.07;;
39864;SDS011;25538;48.392;9.976;2022-08-20T08:23:19;9.70;;;8.80;;
39864;SDS011;25538;48.392;9.976;2022-08-20T08:25:46;8.73;;;8.03;;
39864;SDS011;25538;48.392;9.976;2022-08-20T08:28:13;8.77;;;8.17;;
39864;SDS011;25538;48.392;9.976;2022-08-20T08:30:40;8.50;;;7.77;;
39864;SDS011;25538;48.392;9.976;2022-08-20T08:33:07;8.73;;;8.13;;
39864;SDS011;25538;48.392;9.976;2022-08-20T08:35:52;8.57;;;7.97;;
39864;SDS011;25538;48.392;9.976;2022-08-20T08:38:22;8.80;;;8.20;;
39864;SDS011;25538;48.392;9.976;2022-08-20T08:40:50;8.97;;;6.43;;
39864;SDS011;25538;48.392;9.976;2022-08-20T08:43:19;7.13;;;6.73;;
39864;SDS011;25538;48.392;9.976;2022-08-20T08:45:53;7.20;;;6.80;;
39864;SDS011;25538;48.392;9.976;2022-08-20T08:48:26;7.67;;;7.07;;
39864;SDS011;25538;48.392;9.976;2022-08-20T08:51:08;7.53;;;7.07;;
39864;SDS011;25538;48.392;9.976;2022-08-20T08:53:40;7.77;;;7.17;;
39864;SDS011;25538;48.392;9.976;2022-08-20T08:56:10;7.07;;;6.43;;
39864;SDS011;25538;48.392;9.976;2022-08-20T08:58:39;8.00;;;7.40;;
39864;SDS011;25538;48.392;9.976;2022-08-20T09:01:10;7.90;;;7.00;;
39864;SDS011;25538;48.392;9.976;2022-08-20T09:03:45;7.63;;;7.13;;
39864;SDS011;25538;48.392;9.976;2022-08-20T09:06:16;7.33;;;6.90;;
39864;SDS011;25538;48.392;9.976;2022-08-20T09:08:56;7.53;;;7.07;;
39864;SDS011;25538;48.392;9.976;2022-08-20T09:11:25;6.70;;;6.13;;
39864;SDS011;25538;48.392;9.976;2022-08-20T09:13:53;7.60;;;7.00;;
39864;SDS011;25538;48.392;9.976;2022-08-20T09:16:19;6.57;;;6.20;;
39864;SDS011;25538;48.392;9.976;2022-08-20T09:18:50;5.50;;;5.00;;
39864;SDS011;25538;48.392;9.976;2022-08-20T09:21:16;3.83;;;3.63;;
39864;SDS011;25538;48.392;9.976;2022-08-20T09:23:43;3.70;;;3.50;;
39864;SDS011;25538;48.392;9.976;2022-08-20T09:26:09;3.53;;;3.20;;
39864;SDS011;25538;48.392;9.976;2022-08-20T09:28:35;4.00;;;3.70;;
39864;SDS011;25538;48.392;9.976;2022-08-20T09:31:02;3.07;;;2.87;;
39864;SDS011;25538;48.392;9.976;2022-08-20T09:33:28;3.87;;;3.57;;
39864;SDS011;25538;48.392;9.976;2022-08-20T09:35:54;3.23;;;3.03;;
39864;SDS011;25538;48.392;9.976;2022-08-20T09:38:20;3.43;;;3.20;;
39864;SDS011;25538;48.392;9.976;2022-08-20T09:40:46;3.30;;;3.10;;
39864;SDS011;25538;48.392;9.976;2022-08-20T09:43:12;3.10;;;2.90;;
39864;SDS011;25538;48.392;9.976;2022-08-20T09:45:38;3.40;;;3.20;;
39864;SDS011;25538;48.392;9.976;2022-08-20T09:48:04;2.83;;;2.70;;
39864;SDS011;25538;48.392;9.976;2022-08-20T09:50:31;3.87;;;3.60;;
39864;SDS011;25538;48.392;9.976;2022-08-20T09:53:00;3.67;;;3.50;;
39864;SDS011;25538;48.392;9.976;2022-08-20T09:55:32;3.03;;;2.83;;
39864;SDS011;25538;48.392;9.976;2022-08-20T10:01:07;2.47;;;2.37;;
39864;SDS011;25538;48.392;9.976;2022-08-20T10:03:37;3.27;;;3.07;;
39864;SDS011;25538;48.392;9.976;2022-08-20T10:06:03;3.20;;;3.00;;
39864;SDS011;25538;48.392;9.976;2022-08-20T10:08:29;3.10;;;2.90;;
39864;SDS011;25538;48.392;9.976;2022-08-20T10:10:55;2.63;;;2.43;;
39864;SDS011;25538;48.392;9.976;2022-08-20T10:13:21;2.83;;;2.73;;
39864;SDS011;25538;48.392;9.976;2022-08-20T10:15:47;3.27;;;3.07;;
39864;SDS011;25538;48.392;9.976;2022-08-20T10:18:13;2.63;;;2.43;;
39864;SDS011;25538;48.392;9.976;2022-08-20T10:20:39;3.20;;;2.97;;
39864;SDS011;25538;48.392;9.976;2022-08-20T10:23:06;4.43;;;3.00;;
39864;SDS011;25538;48.392;9.976;2022-08-20T10:25:32;2.70;;;2.50;;
39864;SDS011;25538;48.392;9.976;2022-08-20T10:27:58;2.83;;;2.73;;
39864;SDS011;25538;48.392;9.976;2022-08-20T10:30:24;3.43;;;2.87;;
39864;SDS011;25538;48.392;9.976;2022-08-20T10:32:50;3.67;;;3.47;;
39864;SDS011;25538;48.392;9.976;2022-08-20T10:35:16;3.53;;;3.33;;
39864;SDS011;25538;48.392;9.976;2022-08-20T10:37:42;4.03;;;2.70;;
39864;SDS011;25538;48.392;9.976;2022-08-20T10:40:09;2.90;;;2.73;;
39864;SDS011;25538;48.392;9.976;2022-08-20T10:42:36;2.40;;;2.30;;
39864;SDS011;25538;48.392;9.976;2022-08-20T10:45:02;11.80;;;3.10;;
39864;SDS011;25538;48.392;9.976;2022-08-20T10:47:29;2.83;;;2.73;;
39864;SDS011;25538;48.392;9.976;2022-08-20T10:49:57;2.60;;;2.50;;
39864;SDS011;25538;48.392;9.976;2022-08-20T10:52:25;2.00;;;1.90;;
39864;SDS011;25538;48.392;9.976;2022-08-20T10:54:52;2.27;;;2.07;;
39864;SDS011;25538;48.392;9.976;2022-08-20T10:57:20;2.50;;;2.40;;
39864;SDS011;25538;48.392;9.976;2022-08-20T10:59:48;1.80;;;1.70;;
39864;SDS011;25538;48.392;9.976;2022-08-20T11:02:15;2.70;;;2.50;;
39864;SDS011;25538;48.392;9.976;2022-08-20T11:04:42;2.40;;;2.30;;
39864;SDS011;25538;48.392;9.976;2022-08-20T11:09:42;3.50;;;3.30;;
39864;SDS011;25538;48.392;9.976;2022-08-20T11:12:09;2.80;;;2.60;;
39864;SDS011;25538;48.392;9.976;2022-08-20T11:14:35;3.73;;;3.40;;
39864;SDS011;25538;48.392;9.976;2022-08-20T11:17:02;4.00;;;3.80;;
39864;SDS011;25538;48.392;9.976;2022-08-20T11:19:28;4.20;;;3.90;;
39864;SDS011;25538;48.392;9.976;2022-08-20T11:21:54;3.83;;;3.53;;
39864;SDS011;25538;48.392;9.976;2022-08-20T11:24:20;3.93;;;3.60;;
39864;SDS011;25538;48.392;9.976;2022-08-20T11:26:47;3.70;;;3.50;;
39864;SDS011;25538;48.392;9.976;2022-08-20T11:29:14;3.90;;;3.70;;
39864;SDS011;25538;48.392;9.976;2022-08-20T11:31:41;4.00;;;3.60;;
39864;SDS011;25538;48.392;9.976;2022-08-20T11:34:07;3.90;;;3.70;;
39864;SDS011;25538;48.392;9.976;2022-08-20T11:36:33;3.57;;;3.33;;
39864;SDS011;25538;48.392;9.976;2022-08-20T11:39:01;4.13;;;3.90;;
39864;SDS011;25538;48.392;9.976;2022-08-20T11:41:27;4.83;;;4.53;;
39864;SDS011;25538;48.392;9.976;2022-08-20T11:43:53;23.63;;;9.00;;
39864;SDS011;25538;48.392;9.976;2022-08-20T11:46:18;72.30;;;15.67;;
39864;SDS011;25538;48.392;9.976;2022-08-20T11:48:44;15.57;;;7.77;;
39864;SDS011;25538;48.392;9.976;2022-08-20T11:51:10;20.20;;;10.70;;
39864;SDS011;25538;48.392;9.976;2022-08-20T11:53:36;10.30;;;9.27;;
39864;SDS011;25538;48.392;9.976;2022-08-20T11:56:02;13.80;;;12.63;;
39864;SDS011;25538;48.392;9.976;2022-08-20T11:58:28;10.90;;;9.90;;
39864;SDS011;25538;48.392;9.976;2022-08-20T12:00:54;14.00;;;12.80;;
39864;SDS011;25538;48.392;9.976;2022-08-20T12:03:20;15.00;;;13.60;;
39864;SDS011;25538;48.392;9.976;2022-08-20T12:05:46;13.07;;;11.87;;
39864;SDS011;25538;48.392;9.976;2022-08-20T12:08:13;14.63;;;13.33;;
39864;SDS011;25538;48.392;9.976;2022-08-20T12:10:40;13.43;;;12.20;;
39864;SDS011;25538;48.392;9.976;2022-08-20T12:13:06;12.57;;;11.37;;
39864;SDS011;25538;48.392;9.976;2022-08-20T12:15:33;11.60;;;10.60;;
39864;SDS011;25538;48.392;9.976;2022-08-20T12:18:00;12.60;;;11.50;;
39864;SDS011;25538;48.392;9.976;2022-08-20T12:20:30;13.33;;;12.20;;
39864;SDS011;25538;48.392;9.976;2022-08-20T12:22:56;15.10;;;13.30;;
39864;SDS011;25538;48.392;9.976;2022-08-20T12:25:23;125.00;;;24.23;;
39864;SDS011;25538;48.392;9.976;2022-08-20T12:27:49;31.80;;;9.30;;
39864;SDS011;25538;48.392;9.976;2022-08-20T12:30:20;22.50;;;6.60;;
39864;SDS011;25538;48.392;9.976;2022-08-20T12:32:48;24.90;;;7.13;;
39864;SDS011;25538;48.392;9.976;2022-08-20T12:35:14;51.92;;;11.95;;
39864;SDS011;25538;48.392;9.976;2022-08-20T12:37:42;49.00;;;15.15;;
39864;SDS011;25538;48.392;9.976;2022-08-20T12:40:10;18.30;;;11.32;;
39864;SDS011;25538;48.392;9.976;2022-08-20T12:42:38;22.40;;;18.00;;
39864;SDS011;25538;48.392;9.976;2022-08-20T12:45:04;23.40;;;16.33;;
39864;SDS011;25538;48.392;9.976;2022-08-20T12:47:32;20.10;;;13.90;;
39864;SDS011;25538;48.392;9.976;2022-08-20T12:50:05;22.73;;;16.05;;
39864;SDS011;25538;48.392;9.976;2022-08-20T12:52:37;28.52;;;16.75;;
39864;SDS011;25538;48.392;9.976;2022-08-20T12:55:04;38.23;;;19.40;;
39864;SDS011;25538;48.392;9.976;2022-08-20T12:57:38;22.23;;;17.37;;
39864;SDS011;25538;48.392;9.976;2022-08-20T13:00:08;39.70;;;20.57;;
39864;SDS011;25538;48.392;9.976;2022-08-20T13:02:40;24.63;;;18.93;;
39864;SDS011;25538;48.392;9.976;2022-08-20T13:05:10;15.50;;;14.13;;
39864;SDS011;25538;48.392;9.976;2022-08-20T13:07:37;30.30;;;18.27;;
39864;SDS011;25538;48.392;9.976;2022-08-20T13:10:06;25.63;;;16.07;;
39864;SDS011;25538;48.392;9.976;2022-08-20T13:12:33;21.93;;;16.13;;
39864;SDS011;25538;48.392;9.976;2022-08-20T13:14:59;23.53;;;16.13;;
39864;SDS011;25538;48.392;9.976;2022-08-20T13:17:25;13.07;;;11.93;;
39864;SDS011;25538;48.392;9.976;2022-08-20T13:19:51;12.13;;;10.60;;
39864;SDS011;25538;48.392;9.976;2022-08-20T13:22:17;14.00;;;11.10;;
39864;SDS011;25538;48.392;9.976;2022-08-20T13:24:43;17.53;;;12.80;;
39864;SDS011;25538;48.392;9.976;2022-08-20T13:27:13;15.87;;;11.97;;
39864;SDS011;25538;48.392;9.976;2022-08-20T13:29:48;14.27;;;12.80;;
39864;SDS011;25538;48.392;9.976;2022-08-20T13:32:15;13.93;;;12.47;;
39864;SDS011;25538;48.392;9.976;2022-08-20T13:34:41;10.10;;;9.10;;
39864;SDS011;25538;48.392;9.976;2022-08-20T13:37:23;10.13;;;9.33;;
39864;SDS011;25538;48.392;9.976;2022-08-20T13:39:52;7.77;;;7.17;;
39864;SDS011;25538;48.392;9.976;2022-08-20T13:42:18;7.03;;;6.53;;
39864;SDS011;25538;48.392;9.976;2022-08-20T13:44:44;9.70;;;8.70;;
39864;SDS011;25538;48.392;9.976;2022-08-20T13:47:15;9.60;;;8.07;;
39864;SDS011;25538;48.392;9.976;2022-08-20T13:49:43;9.97;;;8.77;;
39864;SDS011;25538;48.392;9.976;2022-08-20T13:52:09;7.70;;;7.10;;
39864;SDS011;25538;48.392;9.976;2022-08-20T13:54:36;7.20;;;6.70;;
39864;SDS011;25538;48.392;9.976;2022-08-20T13:57:07;3.53;;;3.33;;
39864;SDS011;25538;48.392;9.976;2022-08-20T13:59:39;3.90;;;3.70;;
39864;SDS011;25538;48.392;9.976;2022-08-20T14:02:07;3.47;;;3.27;;
39864;SDS011;25538;48.392;9.976;2022-08-20T14:04:34;3.47;;;3.17;;
39864;SDS011;25538;48.392;9.976;2022-08-20T14:09:50;2.90;;;2.70;;
39864;SDS011;25538;48.392;9.976;2022-08-20T14:12:21;2.80;;;2.70;;
39864;SDS011;25538;48.392;9.976;2022-08-20T14:14:48;2.90;;;2.80;;
39864;SDS011;25538;48.392;9.976;2022-08-20T14:17:26;4.20;;;3.90;;
39864;SDS011;25538;48.392;9.976;2022-08-20T14:19:55;2.20;;;2.10;;
39864;SDS011;25538;48.392;9.976;2022-08-20T14:22:25;2.03;;;1.93;;
39864;SDS011;25538;48.392;9.976;2022-08-20T14:24:52;1.90;;;1.90;;
39864;SDS011;25538;48.392;9.976;2022-08-20T14:27:20;2.00;;;1.90;;
39864;SDS011;25538;48.392;9.976;2022-08-20T14:29:47;2.20;;;2.10;;
39864;SDS011;25538;48.392;9.976;2022-08-20T14:32:14;2.10;;;2.00;;
39864;SDS011;25538;48.392;9.976;2022-08-20T14:34:41;2.43;;;2.23;;
39864;SDS011;25538;48.392;9.976;2022-08-20T14:39:44;2.53;;;2.33;;
39864;SDS011;25538;48.392;9.976;2022-08-20T14:42:12;2.00;;;1.90;;
39864;SDS011;25538;48.392;9.976;2022-08-20T14:44:39;2.20;;;2.10;;
39864;SDS011;25538;48.392;9.976;2022-08-20T14:47:12;2.17;;;2.07;;
39864;SDS011;25538;48.392;9.976;2022-08-20T14:49:39;1.87;;;1.77;;
39864;SDS011;25538;48.392;9.976;2022-08-20T14:52:05;1.97;;;1.83;;
39864;SDS011;25538;48.392;9.976;2022-08-20T14:54:31;1.50;;;1.50;;